Aeneas, Washington
Current Conditions -  °F | °C
As of 7:53 PM on Wednesday 28 Jan 2015 (Local Time) from KOMK Reporting Station
Overcast Overcast  
Wind Chill: 34°   Ceiling: 600
Heat Index: 34°   Visibility: 10mi
Dew Point: 32°   Wind: 3mph
Humidity: 92%   Direction: 190°S
Pressure: 30.48"   Gusts: NA
Location:  48.6708°N, 119.278°W
Report Text: KOMK 290353Z AUTO 19003KT 10SM OVC006 01/00 A3048 RMK AO2 SLP335 T00110000
Loading
Personal Weather Stations






























Interactive Weather Map New forecast layout! Learn more

10-Day Weather Forecast

Advertisements
Track Severe Weather on mobile